sensor_id;sensor_type;location;lat;lon;timestamp;temperature;humidity
29777;DHT22;16677;52.224;7.484;2022-10-26T00:01:39;9.60;99.90
29777;DHT22;16677;52.224;7.484;2022-10-26T00:04:06;9.50;99.90
29777;DHT22;16677;52.224;7.484;2022-10-26T00:06:33;9.50;99.90
29777;DHT22;16677;52.224;7.484;2022-10-26T00:09:01;9.60;99.90
29777;DHT22;16677;52.224;7.484;2022-10-26T00:11:28;9.60;99.90
29777;DHT22;16677;52.224;7.484;2022-10-26T00:13:56;9.60;99.90
29777;DHT22;16677;52.224;7.484;2022-10-26T00:16:25;9.60;99.90
29777;DHT22;16677;52.224;7.484;2022-10-26T00:18:53;9.50;99.90
29777;DHT22;16677;52.224;7.484;2022-10-26T00:21:21;9.50;99.90
29777;DHT22;16677;52.224;7.484;2022-10-26T00:23:48;9.50;99.90
29777;DHT22;16677;52.224;7.484;2022-10-26T00:26:17;9.50;99.90
29777;DHT22;16677;52.224;7.484;2022-10-26T00:28:46;9.50;99.90
29777;DHT22;16677;52.224;7.484;2022-10-26T00:31:15;9.50;99.90
29777;DHT22;16677;52.224;7.484;2022-10-26T00:33:42;9.40;99.90
29777;DHT22;16677;52.224;7.484;2022-10-26T00:36:10;9.50;99.90
29777;DHT22;16677;52.224;7.484;2022-10-26T00:38:40;9.40;99.90
29777;DHT22;16677;52.224;7.484;2022-10-26T00:41:16;9.50;99.90
29777;DHT22;16677;52.224;7.484;2022-10-26T00:43:44;9.50;99.90
29777;DHT22;16677;52.224;7.484;2022-10-26T00:46:33;9.50;99.90
29777;DHT22;16677;52.224;7.484;2022-10-26T00:49:15;9.40;99.90
29777;DHT22;16677;52.224;7.484;2022-10-26T00:51:49;9.50;99.90
29777;DHT22;16677;52.224;7.484;2022-10-26T00:54:18;9.30;99.90
29777;DHT22;16677;52.224;7.484;2022-10-26T00:56:48;9.30;99.90
29777;DHT22;16677;52.224;7.484;2022-10-26T00:59:16;9.40;99.90
29777;DHT22;16677;52.224;7.484;2022-10-26T01:01:45;9.40;99.90
29777;DHT22;16677;52.224;7.484;2022-10-26T01:04:14;9.30;99.90
29777;DHT22;16677;52.224;7.484;2022-10-26T01:06:44;9.30;99.90
29777;DHT22;16677;52.224;7.484;2022-10-26T01:09:12;9.40;99.90
29777;DHT22;16677;52.224;7.484;2022-10-26T01:11:46;9.30;99.90
29777;DHT22;16677;52.224;7.484;2022-10-26T01:14:39;9.30;99.90
29777;DHT22;16677;52.224;7.484;2022-10-26T01:17:31;9.30;99.90
29777;DHT22;16677;52.224;7.484;2022-10-26T01:20:24;9.30;99.90
29777;DHT22;16677;52.224;7.484;2022-10-26T01:25:40;9.40;99.90
29777;DHT22;16677;52.224;7.484;2022-10-26T01:31:22;9.20;99.90
29777;DHT22;16677;52.224;7.484;2022-10-26T01:34:15;9.20;99.90
29777;DHT22;16677;52.224;7.484;2022-10-26T01:36:59;9.20;99.90
29777;DHT22;16677;52.224;7.484;2022-10-26T01:39:49;9.20;99.90
29777;DHT22;16677;52.224;7.484;2022-10-26T01:42:22;9.10;99.90
29777;DHT22;16677;52.224;7.484;2022-10-26T01:45:14;9.20;99.90
29777;DHT22;16677;52.224;7.484;2022-10-26T01:47:43;9.10;99.90
29777;DHT22;16677;52.224;7.484;2022-10-26T01:50:17;9.10;99.90
29777;DHT22;16677;52.224;7.484;2022-10-26T01:52:48;9.30;99.90
29777;DHT22;16677;52.224;7.484;2022-10-26T02:17:28;9.50;99.90
29777;DHT22;16677;52.224;7.484;2022-10-26T02:20:25;9.50;99.90
29777;DHT22;16677;52.224;7.484;2022-10-26T02:23:04;9.60;99.90
29777;DHT22;16677;52.224;7.484;2022-10-26T02:25:44;9.60;99.90
29777;DHT22;16677;52.224;7.484;2022-10-26T02:28:32;9.60;99.90
29777;DHT22;16677;52.224;7.484;2022-10-26T02:31:06;9.60;99.90
29777;DHT22;16677;52.224;7.484;2022-10-26T02:33:40;9.50;99.90
29777;DHT22;16677;52.224;7.484;2022-10-26T02:36:28;9.60;99.90
29777;DHT22;16677;52.224;7.484;2022-10-26T02:39:20;9.60;99.90
29777;DHT22;16677;52.224;7.484;2022-10-26T02:42:04;9.60;99.90
29777;DHT22;16677;52.224;7.484;2022-10-26T02:45:18;9.60;99.90
29777;DHT22;16677;52.224;7.484;2022-10-26T02:48:26;9.50;99.90
29777;DHT22;16677;52.224;7.484;2022-10-26T02:59:13;9.50;99.90
29777;DHT22;16677;52.224;7.484;2022-10-26T03:01:56;9.50;99.90
29777;DHT22;16677;52.224;7.484;2022-10-26T03:04:33;9.50;99.90
29777;DHT22;16677;52.224;7.484;2022-10-26T03:07:22;9.40;99.90
29777;DHT22;16677;52.224;7.484;2022-10-26T03:09:55;9.50;99.90
29777;DHT22;16677;52.224;7.484;2022-10-26T03:12:39;9.50;99.90
29777;DHT22;16677;52.224;7.484;2022-10-26T03:15:07;9.50;99.90
29777;DHT22;16677;52.224;7.484;2022-10-26T03:17:38;9.50;99.90
29777;DHT22;16677;52.224;7.484;2022-10-26T03:20:07;9.40;99.90
29777;DHT22;16677;52.224;7.484;2022-10-26T03:22:35;9.60;99.90
29777;DHT22;16677;52.224;7.484;2022-10-26T03:25:05;9.50;99.90
29777;DHT22;16677;52.224;7.484;2022-10-26T03:27:35;9.30;99.90
29777;DHT22;16677;52.224;7.484;2022-10-26T03:30:03;9.40;99.90
29777;DHT22;16677;52.224;7.484;2022-10-26T03:32:30;9.30;99.90
29777;DHT22;16677;52.224;7.484;2022-10-26T03:34:58;9.30;99.90
29777;DHT22;16677;52.224;7.484;2022-10-26T03:37:28;9.20;99.90
29777;DHT22;16677;52.224;7.484;2022-10-26T03:40:10;9.20;99.90
29777;DHT22;16677;52.224;7.484;2022-10-26T03:42:39;9.20;99.90
29777;DHT22;16677;52.224;7.484;2022-10-26T03:45:13;9.30;99.90
29777;DHT22;16677;52.224;7.484;2022-10-26T03:48:20;9.30;99.90
29777;DHT22;16677;52.224;7.484;2022-10-26T03:51:22;9.50;99.90
29777;DHT22;16677;52.224;7.484;2022-10-26T03:54:05;9.40;99.90
29777;DHT22;16677;52.224;7.484;2022-10-26T03:56:47;9.40;99.90
29777;DHT22;16677;52.224;7.484;2022-10-26T03:59:34;9.50;99.90
29777;DHT22;16677;52.224;7.484;2022-10-26T04:02:01;9.60;99.90
29777;DHT22;16677;52.224;7.484;2022-10-26T04:04:31;9.60;99.90
29777;DHT22;16677;52.224;7.484;2022-10-26T04:06:59;9.60;99.90
29777;DHT22;16677;52.224;7.484;2022-10-26T04:09:26;9.60;99.90
29777;DHT22;16677;52.224;7.484;2022-10-26T04:11:53;9.60;99.90
29777;DHT22;16677;52.224;7.484;2022-10-26T04:14:21;9.70;99.90
29777;DHT22;16677;52.224;7.484;2022-10-26T04:20:14;9.70;99.90
29777;DHT22;16677;52.224;7.484;2022-10-26T04:22:41;9.80;99.90
29777;DHT22;16677;52.224;7.484;2022-10-26T04:25:10;9.80;99.90
29777;DHT22;16677;52.224;7.484;2022-10-26T04:27:42;9.80;99.90
29777;DHT22;16677;52.224;7.484;2022-10-26T04:30:13;9.90;99.90
29777;DHT22;16677;52.224;7.484;2022-10-26T04:32:55;9.90;99.90
29777;DHT22;16677;52.224;7.484;2022-10-26T04:35:36;9.80;99.90
29777;DHT22;16677;52.224;7.484;2022-10-26T04:38:35;9.90;99.90
29777;DHT22;16677;52.224;7.484;2022-10-26T04:41:07;9.90;99.90
29777;DHT22;16677;52.224;7.484;2022-10-26T04:43:43;9.80;99.90
29777;DHT22;16677;52.224;7.484;2022-10-26T04:46:11;9.80;99.90
29777;DHT22;16677;52.224;7.484;2022-10-26T04:48:42;9.90;99.90
29777;DHT22;16677;52.224;7.484;2022-10-26T04:51:13;9.80;99.90
29777;DHT22;16677;52.224;7.484;2022-10-26T04:53:43;9.70;99.90
29777;DHT22;16677;52.224;7.484;2022-10-26T04:56:28;9.70;99.90
29777;DHT22;16677;52.224;7.484;2022-10-26T04:59:07;9.70;99.90
29777;DHT22;16677;52.224;7.484;2022-10-26T05:01:53;9.70;99.90
29777;DHT22;16677;52.224;7.484;2022-10-26T05:04:41;9.60;99.90
29777;DHT22;16677;52.224;7.484;2022-10-26T05:07:24;9.60;99.90
29777;DHT22;16677;52.224;7.484;2022-10-26T05:09:57;9.60;99.90
29777;DHT22;16677;52.224;7.484;2022-10-26T05:12:40;9.60;99.90
29777;DHT22;16677;52.224;7.484;2022-10-26T05:15:09;9.50;99.90
29777;DHT22;16677;52.224;7.484;2022-10-26T05:17:37;9.50;99.90
29777;DHT22;16677;52.224;7.484;2022-10-26T05:20:05;9.50;99.90
29777;DHT22;16677;52.224;7.484;2022-10-26T05:22:41;9.40;99.90
29777;DHT22;16677;52.224;7.484;2022-10-26T05:25:08;9.40;99.90
29777;DHT22;16677;52.224;7.484;2022-10-26T05:27:35;9.40;99.90
29777;DHT22;16677;52.224;7.484;2022-10-26T05:30:02;9.40;99.90
29777;DHT22;16677;52.224;7.484;2022-10-26T05:32:29;9.40;99.90
29777;DHT22;16677;52.224;7.484;2022-10-26T05:34:57;9.40;99.90
29777;DHT22;16677;52.224;7.484;2022-10-26T05:37:27;9.40;99.90
29777;DHT22;16677;52.224;7.484;2022-10-26T05:39:55;9.40;99.90
29777;DHT22;16677;52.224;7.484;2022-10-26T05:42:22;9.50;99.90
29777;DHT22;16677;52.224;7.484;2022-10-26T05:44:51;9.50;99.90
29777;DHT22;16677;52.224;7.484;2022-10-26T05:47:18;9.50;99.90
29777;DHT22;16677;52.224;7.484;2022-10-26T05:49:45;9.50;99.90
29777;DHT22;16677;52.224;7.484;2022-10-26T05:52:12;9.50;99.90
29777;DHT22;16677;52.224;7.484;2022-10-26T05:54:40;9.60;99.90
29777;DHT22;16677;52.224;7.484;2022-10-26T05:57:11;9.70;99.90
29777;DHT22;16677;52.224;7.484;2022-10-26T05:59:39;9.70;99.90
29777;DHT22;16677;52.224;7.484;2022-10-26T06:02:23;9.80;99.90
29777;DHT22;16677;52.224;7.484;2022-10-26T06:04:57;9.90;99.90
29777;DHT22;16677;52.224;7.484;2022-10-26T06:07:29;9.90;99.90
29777;DHT22;16677;52.224;7.484;2022-10-26T06:09:57;10.00;99.90
29777;DHT22;16677;52.224;7.484;2022-10-26T06:12:25;9.90;99.90
29777;DHT22;16677;52.224;7.484;2022-10-26T06:14:55;10.10;99.90
29777;DHT22;16677;52.224;7.484;2022-10-26T06:20:13;10.10;99.90
29777;DHT22;16677;52.224;7.484;2022-10-26T06:28:02;10.20;99.90
29777;DHT22;16677;52.224;7.484;2022-10-26T06:30:34;10.20;99.90
29777;DHT22;16677;52.224;7.484;2022-10-26T06:33:40;10.30;99.90
29777;DHT22;16677;52.224;7.484;2022-10-26T06:36:27;10.40;99.90
29777;DHT22;16677;52.224;7.484;2022-10-26T06:39:14;10.40;99.90
29777;DHT22;16677;52.224;7.484;2022-10-26T06:49:27;10.70;99.90
29777;DHT22;16677;52.224;7.484;2022-10-26T06:52:25;10.80;99.90
29777;DHT22;16677;52.224;7.484;2022-10-26T06:55:39;10.90;99.90
29777;DHT22;16677;52.224;7.484;2022-10-26T06:58:19;11.10;99.90
29777;DHT22;16677;52.224;7.484;2022-10-26T07:01:01;11.10;99.90
29777;DHT22;16677;52.224;7.484;2022-10-26T07:03:34;11.10;99.90
29777;DHT22;16677;52.224;7.484;2022-10-26T07:06:16;11.20;99.90
29777;DHT22;16677;52.224;7.484;2022-10-26T07:09:05;11.20;99.90
29777;DHT22;16677;52.224;7.484;2022-10-26T07:11:47;11.30;99.90
29777;DHT22;16677;52.224;7.484;2022-10-26T07:14:19;11.40;99.90
29777;DHT22;16677;52.224;7.484;2022-10-26T07:16:55;11.40;99.90
29777;DHT22;16677;52.224;7.484;2022-10-26T07:19:45;11.50;99.90
29777;DHT22;16677;52.224;7.484;2022-10-26T07:22:16;11.60;99.90
29777;DHT22;16677;52.224;7.484;2022-10-26T07:24:46;11.60;99.90
29777;DHT22;16677;52.224;7.484;2022-10-26T07:27:31;12.20;99.90
29777;DHT22;16677;52.224;7.484;2022-10-26T07:33:27;11.90;99.90
29777;DHT22;16677;52.224;7.484;2022-10-26T07:36:18;11.90;99.90
29777;DHT22;16677;52.224;7.484;2022-10-26T07:39:08;12.00;99.90
29777;DHT22;16677;52.224;7.484;2022-10-26T07:41:53;12.20;99.90
29777;DHT22;16677;52.224;7.484;2022-10-26T07:45:05;12.20;99.90
29777;DHT22;16677;52.224;7.484;2022-10-26T07:48:14;12.40;99.90
29777;DHT22;16677;52.224;7.484;2022-10-26T07:50:44;12.50;99.90
29777;DHT22;16677;52.224;7.484;2022-10-26T07:53:56;12.60;99.90
29777;DHT22;16677;52.224;7.484;2022-10-26T07:56:37;12.60;99.90
29777;DHT22;16677;52.224;7.484;2022-10-26T07:59:23;12.60;99.90
29777;DHT22;16677;52.224;7.484;2022-10-26T08:02:04;12.80;99.90
29777;DHT22;16677;52.224;7.484;2022-10-26T08:04:37;12.80;99.90
29777;DHT22;16677;52.224;7.484;2022-10-26T08:10:57;12.80;99.90
29777;DHT22;16677;52.224;7.484;2022-10-26T08:13:38;12.60;99.90
29777;DHT22;16677;52.224;7.484;2022-10-26T08:16:08;12.70;99.90
29777;DHT22;16677;52.224;7.484;2022-10-26T08:18:35;12.80;99.90
29777;DHT22;16677;52.224;7.484;2022-10-26T08:21:08;12.90;99.90
29777;DHT22;16677;52.224;7.484;2022-10-26T08:24:02;13.00;99.90
29777;DHT22;16677;52.224;7.484;2022-10-26T08:26:30;13.10;99.90
29777;DHT22;16677;52.224;7.484;2022-10-26T08:29:03;13.20;99.90
29777;DHT22;16677;52.224;7.484;2022-10-26T08:31:35;13.20;99.90
29777;DHT22;16677;52.224;7.484;2022-10-26T08:34:16;13.60;99.90
29777;DHT22;16677;52.224;7.484;2022-10-26T08:36:47;13.80;99.90
29777;DHT22;16677;52.224;7.484;2022-10-26T08:39:16;14.00;99.90
29777;DHT22;16677;52.224;7.484;2022-10-26T08:41:44;14.20;99.90
29777;DHT22;16677;52.224;7.484;2022-10-26T08:44:26;14.30;99.90
29777;DHT22;16677;52.224;7.484;2022-10-26T08:47:02;14.50;99.90
29777;DHT22;16677;52.224;7.484;2022-10-26T08:50:19;14.70;99.90
29777;DHT22;16677;52.224;7.484;2022-10-26T08:53:10;14.70;99.90
29777;DHT22;16677;52.224;7.484;2022-10-26T08:59:33;14.80;99.90
29777;DHT22;16677;52.224;7.484;2022-10-26T09:02:16;14.80;99.90
29777;DHT22;16677;52.224;7.484;2022-10-26T09:05:30;14.70;99.90
29777;DHT22;16677;52.224;7.484;2022-10-26T09:08:34;14.60;99.90
29777;DHT22;16677;52.224;7.484;2022-10-26T09:20:46;14.60;99.90
29777;DHT22;16677;52.224;7.484;2022-10-26T09:24:01;14.80;99.90
29777;DHT22;16677;52.224;7.484;2022-10-26T09:29:36;14.90;99.90
29777;DHT22;16677;52.224;7.484;2022-10-26T09:32:20;14.80;99.90
29777;DHT22;16677;52.224;7.484;2022-10-26T09:35:04;14.80;99.90
29777;DHT22;16677;52.224;7.484;2022-10-26T09:37:57;14.70;99.90
29777;DHT22;16677;52.224;7.484;2022-10-26T09:44:46;14.80;99.90
29777;DHT22;16677;52.224;7.484;2022-10-26T09:47:38;15.00;99.90
29777;DHT22;16677;52.224;7.484;2022-10-26T09:50:46;15.10;99.90
29777;DHT22;16677;52.224;7.484;2022-10-26T09:53:40;15.30;99.90
29777;DHT22;16677;52.224;7.484;2022-10-26T09:56:26;15.50;99.90
29777;DHT22;16677;52.224;7.484;2022-10-26T09:59:24;15.50;99.90
29777;DHT22;16677;52.224;7.484;2022-10-26T10:02:40;15.70;99.90
29777;DHT22;16677;52.224;7.484;2022-10-26T10:06:13;15.80;99.90
29777;DHT22;16677;52.224;7.484;2022-10-26T10:09:23;15.80;99.90
29777;DHT22;16677;52.224;7.484;2022-10-26T10:12:21;16.00;99.90
29777;DHT22;16677;52.224;7.484;2022-10-26T10:15:29;16.10;99.90
29777;DHT22;16677;52.224;7.484;2022-10-26T15:20:56;18.60;1.00
29777;DHT22;16677;52.224;7.484;2022-10-26T15:23:30;18.60;1.00
29777;DHT22;16677;52.224;7.484;2022-10-26T15:26:33;18.50;1.00
29777;DHT22;16677;52.224;7.484;2022-10-26T15:32:34;18.40;71.50
29777;DHT22;16677;52.224;7.484;2022-10-26T15:35:30;18.30;99.90
29777;DHT22;16677;52.224;7.484;2022-10-26T15:38:09;18.30;99.90
29777;DHT22;16677;52.224;7.484;2022-10-26T15:40:49;18.20;99.90
29777;DHT22;16677;52.224;7.484;2022-10-26T15:43:31;18.20;99.90
29777;DHT22;16677;52.224;7.484;2022-10-26T15:46:20;18.10;1.00
29777;DHT22;16677;52.224;7.484;2022-10-26T15:49:15;18.10;1.00
29777;DHT22;16677;52.224;7.484;2022-10-26T15:51:55;17.90;1.00
29777;DHT22;16677;52.224;7.484;2022-10-26T15:54:32;18.00;1.00
29777;DHT22;16677;52.224;7.484;2022-10-26T15:57:15;17.60;89.50
29777;DHT22;16677;52.224;7.484;2022-10-26T15:59:55;17.80;99.90
29777;DHT22;16677;52.224;7.484;2022-10-26T16:03:23;17.60;99.90
29777;DHT22;16677;52.224;7.484;2022-10-26T16:06:27;17.70;99.90
29777;DHT22;16677;52.224;7.484;2022-10-26T16:09:16;17.30;1.00
29777;DHT22;16677;52.224;7.484;2022-10-26T16:53:49;15.80;99.90
29777;DHT22;16677;52.224;7.484;2022-10-26T16:56:19;15.70;99.90
29777;DHT22;16677;52.224;7.484;2022-10-26T16:58:47;15.60;1.00
29777;DHT22;16677;52.224;7.484;2022-10-26T17:01:15;15.50;61.90
29777;DHT22;16677;52.224;7.484;2022-10-26T17:03:47;15.50;99.90
29777;DHT22;16677;52.224;7.484;2022-10-26T17:06:16;15.50;1.00
29777;DHT22;16677;52.224;7.484;2022-10-26T17:08:43;15.40;99.90
29777;DHT22;16677;52.224;7.484;2022-10-26T17:11:16;15.30;99.90
29777;DHT22;16677;52.224;7.484;2022-10-26T17:13:44;15.20;1.00
29777;DHT22;16677;52.224;7.484;2022-10-26T17:16:20;15.20;1.00
29777;DHT22;16677;52.224;7.484;2022-10-26T17:18:49;15.10;42.10
29777;DHT22;16677;52.224;7.484;2022-10-26T17:21:32;15.00;99.90
29777;DHT22;16677;52.224;7.484;2022-10-26T17:24:11;15.00;1.00
29777;DHT22;16677;52.224;7.484;2022-10-26T17:26:40;14.90;1.00
29777;DHT22;16677;52.224;7.484;2022-10-26T17:29:10;14.90;1.00
29777;DHT22;16677;52.224;7.484;2022-10-26T17:31:39;14.80;1.00
29777;DHT22;16677;52.224;7.484;2022-10-26T17:34:06;14.80;1.00
29777;DHT22;16677;52.224;7.484;2022-10-26T17:36:34;14.70;1.00
29777;DHT22;16677;52.224;7.484;2022-10-26T17:39:03;14.70;1.00
29777;DHT22;16677;52.224;7.484;2022-10-26T17:41:30;14.60;1.00
29777;DHT22;16677;52.224;7.484;2022-10-26T17:43:57;14.60;83.00
29777;DHT22;16677;52.224;7.484;2022-10-26T17:46:25;14.50;97.10
29777;DHT22;16677;52.224;7.484;2022-10-26T17:48:57;14.50;99.90
29777;DHT22;16677;52.224;7.484;2022-10-26T17:51:27;14.50;99.90
29777;DHT22;16677;52.224;7.484;2022-10-26T17:54:08;14.40;99.90
29777;DHT22;16677;52.224;7.484;2022-10-26T17:56:38;14.20;99.90
29777;DHT22;16677;52.224;7.484;2022-10-26T17:59:10;14.40;99.90
29777;DHT22;16677;52.224;7.484;2022-10-26T18:01:38;14.40;99.90
29777;DHT22;16677;52.224;7.484;2022-10-26T18:04:06;14.30;99.90
29777;DHT22;16677;52.224;7.484;2022-10-26T18:06:37;14.40;99.90
29777;DHT22;16677;52.224;7.484;2022-10-26T18:09:04;14.40;99.90
29777;DHT22;16677;52.224;7.484;2022-10-26T18:11:32;14.40;99.90
29777;DHT22;16677;52.224;7.484;2022-10-26T18:14:11;14.50;99.90
29777;DHT22;16677;52.224;7.484;2022-10-26T18:16:39;14.50;99.90
29777;DHT22;16677;52.224;7.484;2022-10-26T18:19:09;14.50;99.90
29777;DHT22;16677;52.224;7.484;2022-10-26T18:21:39;14.60;99.90
29777;DHT22;16677;52.224;7.484;2022-10-26T18:24:15;14.80;99.90
29777;DHT22;16677;52.224;7.484;2022-10-26T18:26:43;14.80;99.90
29777;DHT22;16677;52.224;7.484;2022-10-26T18:29:12;14.90;99.90
29777;DHT22;16677;52.224;7.484;2022-10-26T18:31:49;14.90;99.90
29777;DHT22;16677;52.224;7.484;2022-10-26T18:34:17;14.90;99.90
29777;DHT22;16677;52.224;7.484;2022-10-26T18:36:44;15.00;99.90
29777;DHT22;16677;52.224;7.484;2022-10-26T18:39:12;15.10;99.90
29777;DHT22;16677;52.224;7.484;2022-10-26T18:41:46;15.10;99.90
29777;DHT22;16677;52.224;7.484;2022-10-26T18:44:14;15.30;99.90
29777;DHT22;16677;52.224;7.484;2022-10-26T18:46:41;15.30;99.90
29777;DHT22;16677;52.224;7.484;2022-10-26T18:49:12;15.40;99.90
29777;DHT22;16677;52.224;7.484;2022-10-26T18:51:39;15.50;1.00
29777;DHT22;16677;52.224;7.484;2022-10-26T18:54:06;15.60;1.00
29777;DHT22;16677;52.224;7.484;2022-10-26T18:56:33;15.60;99.90
29777;DHT22;16677;52.224;7.484;2022-10-26T18:59:00;15.60;99.90
29777;DHT22;16677;52.224;7.484;2022-10-26T19:01:30;15.50;99.90
29777;DHT22;16677;52.224;7.484;2022-10-26T19:04:05;15.50;1.00
29777;DHT22;16677;52.224;7.484;2022-10-26T19:06:39;15.40;99.90
29777;DHT22;16677;52.224;7.484;2022-10-26T19:09:07;15.30;99.90
29777;DHT22;16677;52.224;7.484;2022-10-26T19:11:36;15.20;99.90
29777;DHT22;16677;52.224;7.484;2022-10-26T19:14:04;15.10;1.00
29777;DHT22;16677;52.224;7.484;2022-10-26T19:16:33;15.00;1.00
29777;DHT22;16677;52.224;7.484;2022-10-26T19:19:16;14.90;93.90
29777;DHT22;16677;52.224;7.484;2022-10-26T19:21:46;14.90;99.90
29777;DHT22;16677;52.224;7.484;2022-10-26T19:24:18;14.90;1.00
29777;DHT22;16677;52.224;7.484;2022-10-26T19:26:47;14.80;1.00
29777;DHT22;16677;52.224;7.484;2022-10-26T19:29:16;14.80;99.90
29777;DHT22;16677;52.224;7.484;2022-10-26T19:31:45;14.80;99.90
29777;DHT22;16677;52.224;7.484;2022-10-26T19:34:16;14.70;1.00
29777;DHT22;16677;52.224;7.484;2022-10-26T19:36:44;14.60;61.00
29777;DHT22;16677;52.224;7.484;2022-10-26T19:39:14;14.60;99.90
29777;DHT22;16677;52.224;7.484;2022-10-26T19:41:46;14.50;99.90
29777;DHT22;16677;52.224;7.484;2022-10-26T19:44:13;14.40;1.00
29777;DHT22;16677;52.224;7.484;2022-10-26T19:46:42;14.30;1.00
29777;DHT22;16677;52.224;7.484;2022-10-26T19:49:09;14.40;99.90
29777;DHT22;16677;52.224;7.484;2022-10-26T19:51:38;14.40;99.90
29777;DHT22;16677;52.224;7.484;2022-10-26T19:54:05;14.30;99.90
29777;DHT22;16677;52.224;7.484;2022-10-26T19:56:35;14.30;99.90
29777;DHT22;16677;52.224;7.484;2022-10-26T19:59:03;14.30;99.90
29777;DHT22;16677;52.224;7.484;2022-10-26T20:01:31;14.30;99.90
29777;DHT22;16677;52.224;7.484;2022-10-26T20:03:58;14.20;99.90
29777;DHT22;16677;52.224;7.484;2022-10-26T20:06:29;14.20;99.90
29777;DHT22;16677;52.224;7.484;2022-10-26T20:08:57;14.10;99.90
29777;DHT22;16677;52.224;7.484;2022-10-26T20:11:24;14.20;99.90
29777;DHT22;16677;52.224;7.484;2022-10-26T20:13:51;14.10;99.90
29777;DHT22;16677;52.224;7.484;2022-10-26T20:16:20;14.20;99.90
29777;DHT22;16677;52.224;7.484;2022-10-26T20:18:47;14.20;99.90
29777;DHT22;16677;52.224;7.484;2022-10-26T20:21:16;14.20;99.90
29777;DHT22;16677;52.224;7.484;2022-10-26T20:23:44;14.20;99.90
29777;DHT22;16677;52.224;7.484;2022-10-26T20:26:12;14.30;99.90
29777;DHT22;16677;52.224;7.484;2022-10-26T20:28:46;14.20;99.90
29777;DHT22;16677;52.224;7.484;2022-10-26T20:31:14;14.20;99.90
29777;DHT22;16677;52.224;7.484;2022-10-26T20:33:41;14.20;99.90
29777;DHT22;16677;52.224;7.484;2022-10-26T20:36:09;14.20;99.90
29777;DHT22;16677;52.224;7.484;2022-10-26T20:38:38;14.20;99.90
29777;DHT22;16677;52.224;7.484;2022-10-26T20:41:08;14.20;99.90
29777;DHT22;16677;52.224;7.484;2022-10-26T20:43:37;14.30;99.90
29777;DHT22;16677;52.224;7.484;2022-10-26T20:46:08;14.20;99.90
29777;DHT22;16677;52.224;7.484;2022-10-26T20:48:35;14.20;99.90
29777;DHT22;16677;52.224;7.484;2022-10-26T20:51:15;14.10;99.90
29777;DHT22;16677;52.224;7.484;2022-10-26T20:56:43;14.10;99.90
29777;DHT22;16677;52.224;7.484;2022-10-26T20:59:30;14.00;99.90
29777;DHT22;16677;52.224;7.484;2022-10-26T21:02:01;13.90;99.90
29777;DHT22;16677;52.224;7.484;2022-10-26T21:04:29;13.90;99.90
29777;DHT22;16677;52.224;7.484;2022-10-26T21:06:56;13.90;99.90
29777;DHT22;16677;52.224;7.484;2022-10-26T21:09:23;13.90;99.90
29777;DHT22;16677;52.224;7.484;2022-10-26T21:11:53;13.90;99.90
29777;DHT22;16677;52.224;7.484;2022-10-26T21:14:23;13.80;99.90
29777;DHT22;16677;52.224;7.484;2022-10-26T21:16:51;13.80;99.90
29777;DHT22;16677;52.224;7.484;2022-10-26T21:19:18;13.80;99.90
29777;DHT22;16677;52.224;7.484;2022-10-26T21:21:45;13.80;99.90
29777;DHT22;16677;52.224;7.484;2022-10-26T21:24:12;13.80;99.90
29777;DHT22;16677;52.224;7.484;2022-10-26T21:26:39;13.70;99.90
29777;DHT22;16677;52.224;7.484;2022-10-26T21:29:07;13.80;99.90
29777;DHT22;16677;52.224;7.484;2022-10-26T21:31:34;13.70;99.90
29777;DHT22;16677;52.224;7.484;2022-10-26T21:34:01;13.70;99.90
29777;DHT22;16677;52.224;7.484;2022-10-26T21:36:28;13.60;99.90
29777;DHT22;16677;52.224;7.484;2022-10-26T21:38:55;13.60;99.90
29777;DHT22;16677;52.224;7.484;2022-10-26T21:41:22;13.50;99.90
29777;DHT22;16677;52.224;7.484;2022-10-26T21:43:50;13.50;99.90
29777;DHT22;16677;52.224;7.484;2022-10-26T21:46:35;13.60;99.90
29777;DHT22;16677;52.224;7.484;2022-10-26T21:49:04;13.50;99.90
29777;DHT22;16677;52.224;7.484;2022-10-26T21:51:32;13.50;99.90
29777;DHT22;16677;52.224;7.484;2022-10-26T21:54:01;13.40;99.90
29777;DHT22;16677;52.224;7.484;2022-10-26T21:56:29;13.30;99.90
29777;DHT22;16677;52.224;7.484;2022-10-26T21:58:58;13.30;99.90
29777;DHT22;16677;52.224;7.484;2022-10-26T22:01:26;13.30;99.90
29777;DHT22;16677;52.224;7.484;2022-10-26T22:03:55;13.20;99.90
29777;DHT22;16677;52.224;7.484;2022-10-26T22:06:23;13.20;99.90
29777;DHT22;16677;52.224;7.484;2022-10-26T22:08:51;13.20;99.90
29777;DHT22;16677;52.224;7.484;2022-10-26T22:11:22;13.20;99.90
29777;DHT22;16677;52.224;7.484;2022-10-26T22:13:55;13.20;99.90
29777;DHT22;16677;52.224;7.484;2022-10-26T22:16:29;13.20;99.90
29777;DHT22;16677;52.224;7.484;2022-10-26T22:19:00;13.20;99.90
29777;DHT22;16677;52.224;7.484;2022-10-26T22:21:36;13.30;99.90
29777;DHT22;16677;52.224;7.484;2022-10-26T22:24:05;13.00;99.90
29777;DHT22;16677;52.224;7.484;2022-10-26T22:26:35;13.10;99.90
29777;DHT22;16677;52.224;7.484;2022-10-26T22:29:05;13.20;99.90
29777;DHT22;16677;52.224;7.484;2022-10-26T22:31:38;13.20;99.90
29777;DHT22;16677;52.224;7.484;2022-10-26T22:34:14;13.20;99.90
29777;DHT22;16677;52.224;7.484;2022-10-26T22:36:44;13.10;99.90
29777;DHT22;16677;52.224;7.484;2022-10-26T22:39:26;13.00;99.90
29777;DHT22;16677;52.224;7.484;2022-10-26T22:41:59;13.10;99.90
29777;DHT22;16677;52.224;7.484;2022-10-26T22:44:26;13.10;99.90
29777;DHT22;16677;52.224;7.484;2022-10-26T22:46:58;13.20;99.90
29777;DHT22;16677;52.224;7.484;2022-10-26T22:49:26;13.10;99.90
29777;DHT22;16677;52.224;7.484;2022-10-26T22:51:54;13.00;99.90
29777;DHT22;16677;52.224;7.484;2022-10-26T22:54:24;13.00;99.90
29777;DHT22;16677;52.224;7.484;2022-10-26T22:56:52;13.00;99.90
29777;DHT22;16677;52.224;7.484;2022-10-26T22:59:20;13.00;99.90
29777;DHT22;16677;52.224;7.484;2022-10-26T23:01:51;13.10;99.90
29777;DHT22;16677;52.224;7.484;2022-10-26T23:04:21;13.10;99.90
29777;DHT22;16677;52.224;7.484;2022-10-26T23:06:49;13.10;99.90
29777;DHT22;16677;52.224;7.484;2022-10-26T23:09:17;13.00;99.90
29777;DHT22;16677;52.224;7.484;2022-10-26T23:11:49;13.00;99.90
29777;DHT22;16677;52.224;7.484;2022-10-26T23:14:21;13.00;99.90
29777;DHT22;16677;52.224;7.484;2022-10-26T23:16:49;13.00;99.90
29777;DHT22;16677;52.224;7.484;2022-10-26T23:19:16;13.00;99.90
29777;DHT22;16677;52.224;7.484;2022-10-26T23:21:46;13.00;99.90
29777;DHT22;16677;52.224;7.484;2022-10-26T23:24:13;12.90;99.90
29777;DHT22;16677;52.224;7.484;2022-10-26T23:26:40;12.90;99.90
29777;DHT22;16677;52.224;7.484;2022-10-26T23:29:08;12.90;99.90
29777;DHT22;16677;52.224;7.484;2022-10-26T23:31:36;12.90;99.90
29777;DHT22;16677;52.224;7.484;2022-10-26T23:34:03;12.90;99.90
29777;DHT22;16677;52.224;7.484;2022-10-26T23:36:31;12.90;99.90
29777;DHT22;16677;52.224;7.484;2022-10-26T23:38:58;12.80;99.90
29777;DHT22;16677;52.224;7.484;2022-10-26T23:41:25;12.80;99.90
29777;DHT22;16677;52.224;7.484;2022-10-26T23:43:52;12.90;99.90